createdAt,value
2023-04-10T00:00:19.388Z,1022.53
2023-04-10T00:01:19.388Z,1022.55
2023-04-10T00:02:19.443Z,1022.48
2023-04-10T00:03:19.521Z,1022.58
2023-04-10T00:04:19.507Z,1022.46
2023-04-10T00:05:19.311Z,1022.55
2023-04-10T00:06:19.296Z,1022.51
2023-04-10T00:07:19.293Z,1022.45
2023-04-10T00:08:19.274Z,1022.48
2023-04-10T00:09:19.261Z,1022.46
2023-04-10T00:10:19.283Z,1022.39
2023-04-10T00:11:19.242Z,1022.44
2023-04-10T00:12:19.234Z,1022.42
2023-04-10T00:13:19.230Z,1022.43
2023-04-10T00:14:19.213Z,1022.49
2023-04-10T00:15:19.225Z,1022.43
2023-04-10T00:16:19.252Z,1022.45
2023-04-10T00:17:19.181Z,1022.36
2023-04-10T00:18:19.213Z,1022.37
2023-04-10T00:19:19.162Z,1022.41
2023-04-10T00:20:19.179Z,1022.38
2023-04-10T00:21:19.138Z,1022.38
2023-04-10T00:22:19.130Z,1022.44
2023-04-10T00:23:19.141Z,1022.38
2023-04-10T00:24:19.103Z,1022.35
2023-04-10T00:25:19.090Z,1022.36
2023-04-10T00:26:19.074Z,1022.29
2023-04-10T00:27:19.064Z,1022.31
2023-04-10T00:28:19.139Z,1022.33
2023-04-10T00:29:19.067Z,1022.41
2023-04-10T00:30:19.037Z,1022.31
2023-04-10T00:31:19.020Z,1022.33
2023-04-10T00:32:19.134Z,1022.29
2023-04-10T00:33:19.013Z,1022.27
2023-04-10T00:34:19.029Z,1022.25
2023-04-10T00:35:18.981Z,1022.25
2023-04-10T00:36:19.037Z,1022.26
2023-04-10T00:37:18.981Z,1022.25
2023-04-10T00:38:18.965Z,1022.23
2023-04-10T00:39:18.971Z,1022.19
2023-04-10T00:40:18.982Z,1022.18
2023-04-10T00:41:18.928Z,1022.20
2023-04-10T00:42:18.911Z,1022.18
2023-04-10T00:43:18.901Z,1022.19
2023-04-10T00:44:18.884Z,1022.17
2023-04-10T00:45:18.897Z,1022.19
2023-04-10T00:46:18.913Z,1022.18
2023-04-10T00:47:18.882Z,1022.14
2023-04-10T00:48:18.877Z,1022.13
2023-04-10T00:49:18.827Z,1022.14
2023-04-10T00:50:18.846Z,1022.14
2023-04-10T00:51:18.804Z,1022.11
2023-04-10T00:52:18.798Z,1022.09
2023-04-10T00:53:18.785Z,1022.11
2023-04-10T00:54:18.778Z,1022.05
2023-04-10T00:55:18.763Z,1022.07
2023-04-10T00:56:18.782Z,1022.06
2023-04-10T00:57:18.749Z,1022.02
2023-04-10T00:58:18.732Z,1021.98
2023-04-10T00:59:18.715Z,1022.03
2023-04-10T01:00:18.714Z,1021.99
2023-04-10T01:01:18.758Z,1022.04
2023-04-10T01:02:18.914Z,1021.98
2023-04-10T01:03:18.815Z,1022.03
2023-04-10T01:04:18.719Z,1022.02
2023-04-10T01:05:18.648Z,1022.04
2023-04-10T01:06:18.647Z,1022.01
2023-04-10T01:07:18.626Z,1022.00
2023-04-10T01:08:18.619Z,1021.99
2023-04-10T01:09:18.635Z,1022.04
2023-04-10T01:10:18.596Z,1022.01
2023-04-10T01:11:18.613Z,1022.02
2023-04-10T01:12:18.580Z,1022.02
2023-04-10T01:13:18.556Z,1021.97
2023-04-10T01:14:18.556Z,1022.01
2023-04-10T01:15:18.541Z,1022.00
2023-04-10T01:16:18.623Z,1022.01
2023-04-10T01:17:18.517Z,1022.03
2023-04-10T01:18:18.512Z,1022.02
2023-04-10T01:19:18.489Z,1021.97
2023-04-10T01:20:18.518Z,1021.99
2023-04-10T01:21:18.485Z,1022.02
2023-04-10T01:22:18.481Z,1021.97
2023-04-10T01:23:18.444Z,1022.01
2023-04-10T01:24:18.441Z,1021.99
2023-04-10T01:25:18.427Z,1022.02
2023-04-10T01:26:18.429Z,1022.03
2023-04-10T01:27:18.422Z,1021.99
2023-04-10T01:28:18.402Z,1022.03
2023-04-10T01:29:18.380Z,1022.01
2023-04-10T01:30:18.371Z,1022.05
2023-04-10T01:31:18.464Z,1022.01
2023-04-10T01:32:18.382Z,1021.98
2023-04-10T01:33:18.336Z,1021.98
2023-04-10T01:34:18.342Z,1021.97
2023-04-10T01:35:18.310Z,1021.97
2023-04-10T01:36:18.326Z,1022.00
2023-04-10T01:37:18.340Z,1021.99
2023-04-10T01:38:18.297Z,1022.03
2023-04-10T01:39:18.285Z,1022.03
2023-04-10T01:40:18.273Z,1021.99
2023-04-10T01:41:18.247Z,1022.01
2023-04-10T01:42:18.239Z,1022.01
2023-04-10T01:43:18.283Z,1021.99
2023-04-10T01:44:18.215Z,1021.98
2023-04-10T01:45:18.222Z,1022.06
2023-04-10T01:46:18.315Z,1022.00
2023-04-10T01:47:18.220Z,1021.99
2023-04-10T01:48:18.171Z,1021.96
2023-04-10T01:49:18.166Z,1021.99
2023-04-10T01:50:18.151Z,1021.93
2023-04-10T01:51:18.136Z,1021.93
2023-04-10T01:52:18.190Z,1021.95
2023-04-10T01:53:18.116Z,1021.94
2023-04-10T01:54:18.107Z,1021.90
2023-04-10T01:55:18.097Z,1021.93
2023-04-10T01:56:18.097Z,1021.94
2023-04-10T01:57:18.111Z,1021.94
2023-04-10T01:58:18.071Z,1021.91
2023-04-10T01:59:18.060Z,1021.96
2023-04-10T02:00:18.068Z,1021.90
2023-04-10T02:01:28.333Z,1021.91
2023-04-10T02:02:19.124Z,1021.90
2023-04-10T02:03:18.287Z,1021.96
2023-04-10T02:04:18.036Z,1021.93
2023-04-10T02:05:17.987Z,1021.91
2023-04-10T02:06:17.973Z,1021.94
2023-04-10T02:07:17.987Z,1021.94
2023-04-10T02:08:17.976Z,1021.95
2023-04-10T02:09:17.942Z,1021.87
2023-04-10T02:10:17.930Z,1021.93
2023-04-10T02:11:17.923Z,1021.88
2023-04-10T02:12:17.926Z,1021.89
2023-04-10T02:13:17.900Z,1021.98
2023-04-10T02:14:17.879Z,1021.93
2023-04-10T02:15:17.881Z,1021.94
2023-04-10T02:16:17.925Z,1021.95
2023-04-10T02:17:17.882Z,1021.99
2023-04-10T02:18:17.845Z,1021.97
2023-04-10T02:19:17.834Z,1021.97
2023-04-10T02:20:17.831Z,1021.96
2023-04-10T02:21:17.810Z,1021.94
2023-04-10T02:22:17.821Z,1021.94
2023-04-10T02:23:17.800Z,1021.91
2023-04-10T02:24:17.806Z,1021.92
2023-04-10T02:25:17.807Z,1021.92
2023-04-10T02:26:17.749Z,1021.86
2023-04-10T02:27:17.769Z,1021.91
2023-04-10T02:28:17.729Z,1021.83
2023-04-10T02:29:17.722Z,1021.88
2023-04-10T02:30:17.711Z,1021.94
2023-04-10T02:31:17.760Z,1021.92
2023-04-10T02:32:17.705Z,1021.93
2023-04-10T02:33:17.710Z,1022.03
2023-04-10T02:34:17.693Z,1022.00
2023-04-10T02:35:17.663Z,1021.96
2023-04-10T02:36:17.672Z,1021.99
2023-04-10T02:37:17.640Z,1021.97
2023-04-10T02:38:17.649Z,1021.95
2023-04-10T02:39:17.630Z,1021.98
2023-04-10T02:40:17.654Z,1021.95
2023-04-10T02:41:17.602Z,1021.94
2023-04-10T02:42:17.582Z,1021.94
2023-04-10T02:43:17.590Z,1021.96
2023-04-10T02:44:17.571Z,1021.91
2023-04-10T02:45:17.588Z,1021.95
2023-04-10T02:46:17.596Z,1021.93
2023-04-10T02:47:17.549Z,1021.93
2023-04-10T02:48:17.548Z,1021.95
2023-04-10T02:49:17.513Z,1021.97
2023-04-10T02:50:17.513Z,1021.99
2023-04-10T02:51:17.492Z,1021.98
2023-04-10T02:52:17.498Z,1021.99
2023-04-10T02:53:17.470Z,1022.00
2023-04-10T02:54:17.454Z,1021.98
2023-04-10T02:55:17.450Z,1022.04
2023-04-10T02:56:17.451Z,1021.98
2023-04-10T02:57:17.462Z,1021.97
2023-04-10T02:58:17.414Z,1022.00
2023-04-10T02:59:17.411Z,1021.98
2023-04-10T03:00:17.393Z,1022.05
2023-04-10T03:01:17.384Z,1022.02
2023-04-10T03:02:17.406Z,1022.04
2023-04-10T03:03:17.560Z,1022.02
2023-04-10T03:04:17.513Z,1022.07
2023-04-10T03:05:17.342Z,1022.05
2023-04-10T03:06:17.324Z,1022.05
2023-04-10T03:07:17.335Z,1022.05
2023-04-10T03:08:17.306Z,1022.01
2023-04-10T03:09:17.315Z,1022.08
2023-04-10T03:10:17.280Z,1022.03
2023-04-10T03:11:17.280Z,1022.05
2023-04-10T03:12:17.296Z,1022.00
2023-04-10T03:13:17.279Z,1022.05
2023-04-10T03:14:17.265Z,1022.02
2023-04-10T03:15:17.227Z,1022.03
2023-04-10T03:16:17.312Z,1022.06
2023-04-10T03:17:17.231Z,1022.01
2023-04-10T03:18:17.236Z,1022.04
2023-04-10T03:19:17.188Z,1022.06
2023-04-10T03:20:17.169Z,1022.04
2023-04-10T03:21:17.193Z,1022.04
2023-04-10T03:22:17.150Z,1021.98
2023-04-10T03:23:17.181Z,1022.04
2023-04-10T03:24:17.143Z,1021.98
2023-04-10T03:25:17.126Z,1022.03
2023-04-10T03:26:17.112Z,1022.07
2023-04-10T03:27:17.122Z,1022.04
2023-04-10T03:28:17.131Z,1021.98
2023-04-10T03:29:17.080Z,1022.03
2023-04-10T03:30:17.064Z,1021.92
2023-04-10T03:31:17.080Z,1022.00
2023-04-10T03:32:17.046Z,1022.03
2023-04-10T03:33:17.076Z,1022.03
2023-04-10T03:34:17.019Z,1021.97
2023-04-10T03:35:17.033Z,1022.05
2023-04-10T03:36:17.021Z,1021.99
2023-04-10T03:37:16.997Z,1022.02
2023-04-10T03:38:17.059Z,1022.00
2023-04-10T03:39:16.973Z,1021.97
2023-04-10T03:40:16.973Z,1022.01
2023-04-10T03:41:16.944Z,1022.01
2023-04-10T03:42:16.943Z,1022.01
2023-04-10T03:43:16.947Z,1022.02
2023-04-10T03:44:16.979Z,1022.05
2023-04-10T03:45:16.909Z,1022.06
2023-04-10T03:46:16.917Z,1022.04
2023-04-10T03:47:16.889Z,1022.04
2023-04-10T03:48:16.889Z,1021.97
2023-04-10T03:49:16.861Z,1021.98
2023-04-10T03:50:16.857Z,1021.99
2023-04-10T03:51:16.842Z,1022.01
2023-04-10T03:52:16.842Z,1022.03
2023-04-10T03:53:16.816Z,1022.00
2023-04-10T03:54:16.811Z,1022.04
2023-04-10T03:55:16.804Z,1022.03
2023-04-10T03:56:16.796Z,1021.97
2023-04-10T03:57:16.827Z,1022.00
2023-04-10T03:58:16.783Z,1021.94
2023-04-10T03:59:16.757Z,1022.02
2023-04-10T04:00:16.755Z,1022.00
2023-04-10T04:01:16.756Z,1022.03
2023-04-10T04:02:16.772Z,1021.99
2023-04-10T04:03:16.923Z,1022.04
2023-04-10T04:04:16.915Z,1021.95
2023-04-10T04:05:16.683Z,1022.02
2023-04-10T04:06:16.691Z,1022.07
2023-04-10T04:07:16.661Z,1022.06
2023-04-10T04:08:16.645Z,1022.05
2023-04-10T04:09:16.636Z,1022.01
2023-04-10T04:10:16.630Z,1022.03
2023-04-10T04:11:16.637Z,1022.01
2023-04-10T04:12:16.602Z,1022.03
2023-04-10T04:13:16.620Z,1021.99
2023-04-10T04:14:16.585Z,1021.99
2023-04-10T04:15:16.577Z,1021.93
2023-04-10T04:16:16.675Z,1021.98
2023-04-10T04:17:16.585Z,1021.98
2023-04-10T04:18:16.541Z,1021.99
2023-04-10T04:19:16.549Z,1021.99
2023-04-10T04:20:16.515Z,1021.91
2023-04-10T04:21:16.550Z,1022.01
2023-04-10T04:22:16.501Z,1021.99
2023-04-10T04:23:16.499Z,1021.94
2023-04-10T04:24:16.477Z,1021.95
2023-04-10T04:25:16.476Z,1021.98
2023-04-10T04:26:16.479Z,1021.96
2023-04-10T04:27:16.474Z,1021.98
2023-04-10T04:28:16.433Z,1021.94
2023-04-10T04:29:16.445Z,1021.98
2023-04-10T04:30:16.424Z,1021.97
2023-04-10T04:31:16.408Z,1021.98
2023-04-10T04:32:16.500Z,1021.98
2023-04-10T04:33:16.379Z,1021.94
2023-04-10T04:34:16.379Z,1021.97
2023-04-10T04:35:16.364Z,1021.94
2023-04-10T04:36:16.403Z,1022.00
2023-04-10T04:37:16.350Z,1021.98
2023-04-10T04:38:16.320Z,1021.97
2023-04-10T04:39:16.312Z,1021.96
2023-04-10T04:40:16.307Z,1022.03
2023-04-10T04:41:17.634Z,1022.05
2023-04-10T04:42:16.284Z,1022.05
2023-04-10T04:43:16.272Z,1022.08
2023-04-10T04:44:16.259Z,1022.08
2023-04-10T04:45:16.252Z,1022.04
2023-04-10T04:46:16.318Z,1022.02
2023-04-10T04:47:16.226Z,1022.08
2023-04-10T04:48:16.247Z,1022.02
2023-04-10T04:49:16.203Z,1022.03
2023-04-10T04:50:16.197Z,1022.04
2023-04-10T04:51:16.213Z,1022.02
2023-04-10T04:52:16.175Z,1022.05
2023-04-10T04:53:16.168Z,1022.07
2023-04-10T04:54:16.152Z,1022.05
2023-04-10T04:55:16.140Z,1022.08
2023-04-10T04:56:16.150Z,1022.05
2023-04-10T04:57:16.119Z,1022.03
2023-04-10T04:58:16.125Z,1022.03
2023-04-10T04:59:16.102Z,1022.05
2023-04-10T05:00:16.085Z,1022.07
2023-04-10T05:01:16.112Z,1022.07
2023-04-10T05:02:16.153Z,1022.00
2023-04-10T05:03:16.177Z,1022.02
2023-04-10T05:04:16.276Z,1022.05
2023-04-10T05:05:16.060Z,1022.04
2023-04-10T05:06:16.069Z,1022.01
2023-04-10T05:07:16.060Z,1022.06
2023-04-10T05:08:15.997Z,1022.07
2023-04-10T05:09:15.982Z,1022.06
2023-04-10T05:10:15.973Z,1022.05
2023-04-10T05:11:15.960Z,1022.07
2023-04-10T05:12:15.967Z,1022.13
2023-04-10T05:13:15.939Z,1022.05
2023-04-10T05:14:15.924Z,1022.06
2023-04-10T05:15:15.942Z,1022.04
2023-04-10T05:16:15.949Z,1022.08
2023-04-10T05:17:15.914Z,1022.05
2023-04-10T05:18:15.913Z,1022.07
2023-04-10T05:19:15.874Z,1022.09
2023-04-10T05:20:15.895Z,1022.06
2023-04-10T05:21:15.856Z,1022.12
2023-04-10T05:22:18.017Z,1022.06
2023-04-10T05:23:15.850Z,1022.11
2023-04-10T05:24:15.832Z,1022.06
2023-04-10T05:25:15.856Z,1022.17
2023-04-10T05:26:15.807Z,1022.12
2023-04-10T05:27:15.787Z,1022.08
2023-04-10T05:28:15.802Z,1022.10
2023-04-10T05:29:15.779Z,1022.08
2023-04-10T05:30:15.757Z,1022.11
2023-04-10T05:31:15.783Z,1022.14
2023-04-10T05:32:15.735Z,1022.16
2023-04-10T05:33:15.774Z,1022.17
2023-04-10T05:34:15.727Z,1022.11
2023-04-10T05:35:15.717Z,1022.18
2023-04-10T05:36:15.884Z,1022.24
2023-04-10T05:37:15.716Z,1022.24
2023-04-10T05:38:15.709Z,1022.19
2023-04-10T05:39:15.672Z,1022.17
2023-04-10T05:40:15.643Z,1022.20
2023-04-10T05:41:15.635Z,1022.17
2023-04-10T05:42:15.661Z,1022.10
2023-04-10T05:43:15.634Z,1022.11
2023-04-10T05:44:15.604Z,1022.14
2023-04-10T05:45:15.596Z,1022.11
2023-04-10T05:46:15.685Z,1022.08
2023-04-10T05:47:15.569Z,1022.06
2023-04-10T05:48:15.587Z,1022.09
2023-04-10T05:49:15.544Z,1022.09
2023-04-10T05:50:15.533Z,1022.10
2023-04-10T05:51:15.534Z,1022.07
2023-04-10T05:52:15.536Z,1022.11
2023-04-10T05:53:15.549Z,1022.07
2023-04-10T05:54:15.492Z,1022.07
2023-04-10T05:55:15.485Z,1022.08
2023-04-10T05:56:15.471Z,1022.05
2023-04-10T05:57:15.466Z,1022.02
2023-04-10T05:58:15.495Z,1021.98
2023-04-10T05:59:15.451Z,1022.03
2023-04-10T06:00:15.424Z,1022.06
2023-04-10T06:01:15.417Z,1022.04
2023-04-10T06:02:15.508Z,1022.03
2023-04-10T06:03:15.502Z,1022.01
2023-04-10T06:04:15.513Z,1022.03
2023-04-10T06:05:15.477Z,1022.01
2023-04-10T06:06:15.378Z,1022.07
2023-04-10T06:07:15.353Z,1022.08
2023-04-10T06:08:15.369Z,1022.02
2023-04-10T06:09:15.355Z,1022.04
2023-04-10T06:10:15.347Z,1022.06
2023-04-10T06:11:15.308Z,1022.10
2023-04-10T06:12:15.296Z,1022.03
2023-04-10T06:13:15.288Z,1022.10
2023-04-10T06:14:15.273Z,1022.05
2023-04-10T06:15:15.287Z,1022.06
2023-04-10T06:16:15.389Z,1022.04
2023-04-10T06:17:15.245Z,1022.05
2023-04-10T06:18:15.232Z,1022.11
2023-04-10T06:19:15.224Z,1022.10
2023-04-10T06:20:15.235Z,1022.03
2023-04-10T06:21:15.223Z,1022.03
2023-04-10T06:22:15.209Z,1022.01
2023-04-10T06:23:15.173Z,1022.05
2023-04-10T06:24:15.188Z,1021.97
2023-04-10T06:25:15.179Z,1021.98
2023-04-10T06:26:15.146Z,1021.97
2023-04-10T06:27:15.133Z,1021.99
2023-04-10T06:28:15.127Z,1021.92
2023-04-10T06:29:15.112Z,1021.96
2023-04-10T06:30:15.130Z,1021.92
2023-04-10T06:31:15.123Z,1021.89
2023-04-10T06:32:15.086Z,1021.90
2023-04-10T06:33:15.069Z,1021.91
2023-04-10T06:34:15.065Z,1021.93
2023-04-10T06:35:15.068Z,1021.89
2023-04-10T06:36:15.081Z,1021.94
2023-04-10T06:37:15.046Z,1021.91
2023-04-10T06:38:15.019Z,1021.93
2023-04-10T06:39:15.007Z,1021.94
2023-04-10T06:40:15.185Z,1021.89
2023-04-10T06:41:14.985Z,1021.85
2023-04-10T06:42:14.975Z,1021.84
2023-04-10T06:43:14.972Z,1021.90
2023-04-10T06:44:14.959Z,1021.92
2023-04-10T06:45:14.978Z,1021.90
2023-04-10T06:46:14.935Z,1021.86
2023-04-10T06:47:14.912Z,1021.92
2023-04-10T06:48:14.910Z,1021.92
2023-04-10T06:49:14.905Z,1021.88
2023-04-10T06:50:14.884Z,1021.83
2023-04-10T06:51:14.909Z,1021.85
2023-04-10T06:52:14.869Z,1021.80
2023-04-10T06:53:14.870Z,1021.83
2023-04-10T06:54:14.839Z,1021.81
2023-04-10T06:55:14.860Z,1021.83
2023-04-10T06:56:14.836Z,1021.86
2023-04-10T06:57:14.813Z,1021.88
2023-04-10T06:58:14.830Z,1021.89
2023-04-10T06:59:14.785Z,1021.86
2023-04-10T07:00:14.777Z,1021.88
2023-04-10T07:01:14.850Z,1021.86
2023-04-10T07:02:14.841Z,1021.92
2023-04-10T07:03:14.856Z,1021.85
2023-04-10T07:04:14.782Z,1021.89
2023-04-10T07:05:14.717Z,1021.91
2023-04-10T07:06:14.737Z,1021.88
2023-04-10T07:07:14.698Z,1021.87
2023-04-10T07:08:14.687Z,1021.90
2023-04-10T07:09:14.676Z,1021.87
2023-04-10T07:10:14.670Z,1021.93
2023-04-10T07:11:14.670Z,1021.89
2023-04-10T07:12:14.673Z,1021.89
2023-04-10T07:13:14.658Z,1021.82
2023-04-10T07:14:14.618Z,1021.81
2023-04-10T07:15:14.610Z,1021.84
2023-04-10T07:16:14.642Z,1021.78
2023-04-10T07:17:14.596Z,1021.85
2023-04-10T07:18:14.605Z,1021.82
2023-04-10T07:19:14.561Z,1021.86
2023-04-10T07:20:14.592Z,1021.85
2023-04-10T07:21:14.561Z,1021.86
2023-04-10T07:22:14.542Z,1021.87
2023-04-10T07:23:14.522Z,1021.91
2023-04-10T07:24:14.507Z,1021.82
2023-04-10T07:25:14.544Z,1021.91
2023-04-10T07:26:14.496Z,1021.95
2023-04-10T07:27:14.478Z,1021.91
2023-04-10T07:28:14.491Z,1021.87
2023-04-10T07:29:14.466Z,1021.91
2023-04-10T07:30:14.477Z,1021.93
2023-04-10T07:31:14.438Z,1021.94
2023-04-10T07:32:14.518Z,1021.88
2023-04-10T07:33:14.558Z,1021.93
2023-04-10T07:34:14.404Z,1021.88
2023-04-10T07:35:14.416Z,1021.86
2023-04-10T07:36:14.421Z,1021.86
2023-04-10T07:37:14.366Z,1021.88
2023-04-10T07:38:14.361Z,1021.86
2023-04-10T07:39:14.362Z,1021.73
2023-04-10T07:40:14.361Z,1021.85
2023-04-10T07:41:14.333Z,1021.79
2023-04-10T07:42:14.340Z,1021.78
2023-04-10T07:43:14.309Z,1021.75
2023-04-10T07:44:14.320Z,1021.76
2023-04-10T07:45:14.297Z,1021.75
2023-04-10T07:46:14.319Z,1021.81
2023-04-10T07:47:14.261Z,1021.79
2023-04-10T07:48:14.277Z,1021.79
2023-04-10T07:49:14.240Z,1021.72
2023-04-10T07:50:14.254Z,1021.71
2023-04-10T07:51:14.214Z,1021.76
2023-04-10T07:52:14.206Z,1021.70
2023-04-10T07:53:14.200Z,1021.70
2023-04-10T07:54:14.187Z,1021.70
2023-04-10T07:55:14.204Z,1021.73
2023-04-10T07:56:14.163Z,1021.61
2023-04-10T07:57:14.153Z,1021.73
2023-04-10T07:58:14.151Z,1021.71
2023-04-10T07:59:14.137Z,1021.70
2023-04-10T08:00:14.172Z,1021.67
2023-04-10T08:01:14.111Z,1021.70
2023-04-10T08:02:14.194Z,1021.66
2023-04-10T08:03:14.296Z,1021.64
2023-04-10T08:04:14.201Z,1021.63
2023-04-10T08:05:14.090Z,1021.62
2023-04-10T08:06:14.077Z,1021.61
2023-04-10T08:07:14.066Z,1021.59
2023-04-10T08:08:14.039Z,1021.64
2023-04-10T08:09:14.017Z,1021.54
2023-04-10T08:10:14.016Z,1021.57
2023-04-10T08:11:14.026Z,1021.56
2023-04-10T08:12:13.994Z,1021.53
2023-04-10T08:13:13.968Z,1021.48
2023-04-10T08:14:13.970Z,1021.54
2023-04-10T08:15:13.965Z,1021.49
2023-04-10T08:16:13.997Z,1021.38
2023-04-10T08:17:13.931Z,1021.46
2023-04-10T08:18:13.921Z,1021.47
2023-04-10T08:19:13.915Z,1021.48
2023-04-10T08:20:13.910Z,1021.44
2023-04-10T08:21:13.908Z,1021.48
2023-04-10T08:23:20.465Z,1021.53
2023-04-10T08:24:14.861Z,1021.44
2023-04-10T08:25:13.851Z,1021.48
2023-04-10T08:26:13.847Z,1021.46
2023-04-10T08:27:13.849Z,1021.47
2023-04-10T08:28:13.805Z,1021.53
2023-04-10T08:29:13.807Z,1021.47
2023-04-10T08:30:13.788Z,1021.56
2023-04-10T08:31:13.863Z,1021.52
2023-04-10T08:32:13.815Z,1021.54
2023-04-10T08:33:13.750Z,1021.48
2023-04-10T08:34:13.745Z,1021.53
2023-04-10T08:35:13.728Z,1021.50
2023-04-10T08:36:13.804Z,1021.55
2023-04-10T08:37:13.731Z,1021.47
2023-04-10T08:38:14.623Z,1021.55
2023-04-10T08:39:13.688Z,1021.59
2023-04-10T08:40:13.685Z,1021.62
2023-04-10T08:41:13.668Z,1021.56
2023-04-10T08:42:13.697Z,1021.54
2023-04-10T08:43:13.650Z,1021.55
2023-04-10T08:44:13.647Z,1021.52
2023-04-10T08:45:13.619Z,1021.59
2023-04-10T08:46:13.629Z,1021.59
2023-04-10T08:47:13.620Z,1021.42
2023-04-10T08:48:13.633Z,1021.41
2023-04-10T08:49:13.588Z,1021.40
2023-04-10T08:50:13.584Z,1021.38
2023-04-10T08:51:19.530Z,1021.36
2023-04-10T08:52:13.568Z,1021.32
2023-04-10T08:53:13.556Z,1021.39
2023-04-10T08:54:13.532Z,1021.37
2023-04-10T08:55:13.510Z,1021.39
2023-04-10T08:56:13.512Z,1021.34
2023-04-10T08:57:13.486Z,1021.29
2023-04-10T08:58:13.523Z,1021.34
2023-04-10T08:59:13.481Z,1021.37
2023-04-10T09:01:14.453Z,1021.32
2023-04-10T09:02:13.482Z,1021.29
2023-04-10T09:03:13.572Z,1021.29
2023-04-10T09:04:13.576Z,1021.27
2023-04-10T09:05:13.401Z,1021.33
2023-04-10T09:06:13.417Z,1021.24
2023-04-10T09:07:13.380Z,1021.22
2023-04-10T09:08:13.368Z,1021.19
2023-04-10T09:09:13.352Z,1021.14
2023-04-10T09:10:13.367Z,1021.18
2023-04-10T09:11:13.717Z,1021.08
2023-04-10T09:12:13.332Z,1021.11
2023-04-10T09:13:13.310Z,1021.10
2023-04-10T09:14:13.326Z,1021.09
2023-04-10T09:15:13.296Z,1021.12
2023-04-10T09:16:13.338Z,1021.01
2023-04-10T09:17:13.266Z,1021.03
2023-04-10T09:18:13.258Z,1020.97
2023-04-10T09:19:13.254Z,1020.99
2023-04-10T09:20:13.256Z,1021.01
2023-04-10T09:21:13.249Z,1020.96
2023-04-10T09:22:13.213Z,1021.01
2023-04-10T09:23:13.203Z,1020.94
2023-04-10T09:24:13.197Z,1020.89
2023-04-10T09:25:13.208Z,1020.91
2023-04-10T09:26:13.173Z,1020.87
2023-04-10T09:27:13.157Z,1020.88
2023-04-10T09:28:13.149Z,1020.92
2023-04-10T09:29:13.143Z,1021.02
2023-04-10T09:30:13.157Z,1021.02
2023-04-10T09:31:13.138Z,1020.90
2023-04-10T09:32:13.120Z,1020.92
2023-04-10T09:33:13.151Z,1020.94
2023-04-10T09:34:13.091Z,1020.90
2023-04-10T09:35:13.090Z,1020.91
2023-04-10T09:36:13.135Z,1020.84
2023-04-10T09:37:13.050Z,1020.83
2023-04-10T09:38:13.040Z,1020.85
2023-04-10T09:39:13.025Z,1020.89
2023-04-10T09:40:13.049Z,1020.79
2023-04-10T09:41:13.036Z,1020.77
2023-04-10T09:42:12.995Z,1020.71
2023-04-10T09:43:13.012Z,1020.78
2023-04-10T09:44:12.979Z,1020.76
2023-04-10T09:45:12.956Z,1020.73
2023-04-10T09:46:13.034Z,1020.66
2023-04-10T09:47:12.933Z,1020.66
2023-04-10T09:48:12.947Z,1020.70
2023-04-10T09:49:12.906Z,1020.69
2023-04-10T09:50:12.906Z,1020.66
2023-04-10T09:51:12.913Z,1020.70
2023-04-10T09:52:12.909Z,1020.66
2023-04-10T09:53:12.898Z,1020.59
2023-04-10T09:54:12.873Z,1020.57
2023-04-10T09:55:12.844Z,1020.55
2023-04-10T09:56:12.839Z,1020.56
2023-04-10T09:57:12.829Z,1020.60
2023-04-10T09:58:12.834Z,1020.55
2023-04-10T09:59:12.803Z,1020.56
2023-04-10T10:00:12.815Z,1020.51
2023-04-10T10:01:12.776Z,1020.50
2023-04-10T10:02:12.845Z,1020.48
2023-04-10T10:03:13.036Z,1020.53
2023-04-10T10:04:12.788Z,1020.52
2023-04-10T10:05:12.797Z,1020.53
2023-04-10T10:06:12.732Z,1020.53
2023-04-10T10:07:12.717Z,1020.57
2023-04-10T10:08:12.740Z,1020.51
2023-04-10T10:09:12.698Z,1020.43
2023-04-10T10:10:12.706Z,1020.45
2023-04-10T10:11:12.682Z,1020.37
2023-04-10T10:12:12.680Z,1020.40
2023-04-10T10:13:12.651Z,1020.37
2023-04-10T10:14:12.662Z,1020.43
2023-04-10T10:15:12.630Z,1020.51
2023-04-10T10:16:12.807Z,1020.49
2023-04-10T10:17:12.601Z,1020.47
2023-04-10T10:18:12.599Z,1020.36
2023-04-10T10:19:12.608Z,1020.40
2023-04-10T10:20:12.609Z,1020.38
2023-04-10T10:21:12.588Z,1020.33
2023-04-10T10:22:12.584Z,1020.29
2023-04-10T10:23:12.544Z,1020.26
2023-04-10T10:24:12.559Z,1020.27
2023-04-10T10:25:12.520Z,1020.28
2023-04-10T10:26:12.544Z,1020.38
2023-04-10T10:27:12.501Z,1020.27
2023-04-10T10:28:12.515Z,1020.24
2023-04-10T10:29:12.478Z,1020.30
2023-04-10T10:30:25.673Z,1020.44
2023-04-10T10:31:13.501Z,1020.39
2023-04-10T10:32:12.448Z,1020.35
2023-04-10T10:33:12.458Z,1020.41
2023-04-10T10:34:12.423Z,1020.41
2023-04-10T10:35:12.412Z,1020.42
2023-04-10T10:36:12.401Z,1020.34
2023-04-10T10:37:12.402Z,1020.38
2023-04-10T10:38:12.412Z,1020.39
2023-04-10T10:39:12.375Z,1020.34
2023-04-10T10:40:12.380Z,1020.11
2023-04-10T10:41:12.348Z,1020.09
2023-04-10T10:42:12.334Z,1020.22
2023-04-10T10:43:12.375Z,1020.24
2023-04-10T10:44:12.329Z,1020.18
2023-04-10T10:45:12.342Z,1020.11
2023-04-10T10:46:12.386Z,1020.16
2023-04-10T10:47:12.285Z,1020.04
2023-04-10T10:48:14.274Z,1019.99
2023-04-10T10:49:12.269Z,1020.07
2023-04-10T10:50:12.248Z,1020.14
2023-04-10T10:51:12.243Z,1020.19
2023-04-10T10:52:12.232Z,1020.19
2023-04-10T10:53:12.246Z,1020.18
2023-04-10T10:54:12.207Z,1020.17
2023-04-10T10:55:12.199Z,1020.22
2023-04-10T10:56:12.211Z,1020.18
2023-04-10T10:57:12.177Z,1020.22
2023-04-10T10:58:12.209Z,1020.20
2023-04-10T10:59:12.153Z,1020.06
2023-04-10T11:00:12.138Z,1019.91
2023-04-10T11:01:12.180Z,1019.91
2023-04-10T11:02:12.228Z,1019.93
2023-04-10T11:03:12.267Z,1019.89
2023-04-10T11:04:12.126Z,1019.87
2023-04-10T11:05:12.091Z,1019.85
2023-04-10T11:06:12.086Z,1019.84
2023-04-10T11:07:12.093Z,1019.82
2023-04-10T11:08:12.056Z,1019.85
2023-04-10T11:09:12.088Z,1019.82
2023-04-10T11:10:12.047Z,1019.70
2023-04-10T11:11:12.020Z,1019.71
2023-04-10T11:12:12.046Z,1019.71
2023-04-10T11:13:12.007Z,1019.77
2023-04-10T11:14:12.018Z,1019.83
2023-04-10T11:15:11.986Z,1019.82
2023-04-10T11:16:12.029Z,1019.80
2023-04-10T11:17:11.981Z,1019.84
2023-04-10T11:18:11.945Z,1019.75
2023-04-10T11:19:15.594Z,1019.65
2023-04-10T11:20:11.926Z,1019.72
2023-04-10T11:21:11.924Z,1019.67
2023-04-10T11:22:11.931Z,1019.76
2023-04-10T11:23:12.072Z,1019.66
2023-04-10T11:24:11.887Z,1019.54
2023-04-10T11:25:11.881Z,1019.57
2023-04-10T11:26:11.858Z,1019.55
2023-04-10T11:27:11.887Z,1019.51
2023-04-10T11:28:11.858Z,1019.49
2023-04-10T11:29:11.837Z,1019.48
2023-04-10T11:30:11.825Z,1019.51
2023-04-10T11:31:11.814Z,1019.46
2023-04-10T11:32:11.839Z,1019.45
2023-04-10T11:33:11.814Z,1019.44
2023-04-10T11:34:11.799Z,1019.46
2023-04-10T11:35:11.770Z,1019.35
2023-04-10T11:36:11.764Z,1019.41
2023-04-10T11:37:11.741Z,1019.42
2023-04-10T11:38:11.744Z,1019.34
2023-04-10T11:39:11.722Z,1019.34
2023-04-10T11:40:11.733Z,1019.36
2023-04-10T11:41:11.698Z,1019.37
2023-04-10T11:42:11.696Z,1019.39
2023-04-10T11:43:11.711Z,1019.21
2023-04-10T11:44:11.686Z,1019.21
2023-04-10T11:45:11.675Z,1019.20
2023-04-10T11:46:11.727Z,1019.21
2023-04-10T11:47:11.641Z,1019.10
2023-04-10T11:48:11.617Z,1019.16
2023-04-10T11:49:11.653Z,1019.13
2023-04-10T11:50:11.626Z,1019.10
2023-04-10T11:51:11.616Z,1019.08
2023-04-10T11:52:11.591Z,1019.16
2023-04-10T11:53:11.594Z,1019.12
2023-04-10T11:54:11.557Z,1019.04
2023-04-10T11:55:11.606Z,1019.06
2023-04-10T11:56:11.545Z,1019.02
2023-04-10T11:57:11.531Z,1019.08
2023-04-10T11:58:11.522Z,1019.01
2023-04-10T11:59:11.515Z,1019.03
2023-04-10T12:00:11.560Z,1018.99
2023-04-10T12:01:11.512Z,1018.98
2023-04-10T12:02:11.555Z,1019.00
2023-04-10T12:03:11.523Z,1019.00
2023-04-10T12:04:11.649Z,1018.98
2023-04-10T12:05:11.564Z,1018.90
2023-04-10T12:06:11.462Z,1018.91
2023-04-10T12:07:11.432Z,1018.86